Time;durP1;ratioP1;P1;durP2;ratioP2;P2;SDS_P1;SDS_P2;PMS_P1;PMS_P2;Temp;Humidity;BMP_temperature;BMP_pressure;BME280_temperature;BME280_humidity;BME280_pressure;Samples;Min_cycle;Max_cycle;Signal;HPM_P1;HPM_P2
2023/12/27 05:39:22;;;;;;;3.80;1.80;;;;;;;2.66;100.00;99089.10;133579;1295;557468;-76
2023/12/27 05:42:25;;;;;;;5.50;2.40;;;;;;;2.63;100.00;99098.42;136304;1284;92364;-76
2023/12/27 05:45:27;;;;;;;4.40;1.80;;;;;;;2.60;100.00;99098.41;136217;1286;22556;-74
2023/12/27 05:48:30;;;;;;;6.40;1.90;;;;;;;2.57;100.00;99106.18;135974;1286;22237;-75
2023/12/27 05:51:33;;;;;;;8.70;2.10;;;;;;;2.56;100.00;99114.07;136413;1286;22226;-75
2023/12/27 05:54:36;;;;;;;2.40;2.00;;;;;;;2.59;100.00;99122.27;136416;1286;22130;-74
2023/12/27 05:57:38;;;;;;;8.90;2.50;;;;;;;2.64;100.00;99128.89;136411;1286;22222;-76
2023/12/27 06:00:41;;;;;;;5.00;2.00;;;;;;;2.67;100.00;99132.50;136423;1286;22311;-74
2023/12/27 06:03:43;;;;;;;6.40;2.50;;;;;;;2.74;100.00;99129.70;136248;1286;22241;-76
2023/12/27 06:06:46;;;;;;;8.00;3.00;;;;;;;2.78;100.00;99128.89;136372;1286;22289;-75
2023/12/27 06:09:50;;;;;;;4.60;2.70;;;;;;;2.80;100.00;99132.74;135778;1286;22254;-75
2023/12/27 06:12:52;;;;;;;7.60;2.40;;;;;;;2.83;100.00;99134.29;136431;1286;22339;-75
2023/12/27 06:15:57;;;;;;;;;;;;;;;2.81;100.00;99133.51;136415;1286;22768;-74
2023/12/27 06:18:59;;;;;;;9.80;3.90;;;;;;;2.77;100.00;99134.68;136416;1284;22692;-74
2023/12/27 06:22:02;;;;;;;14.10;3.80;;;;;;;2.73;100.00;99133.42;136146;1286;22253;-76
2023/12/27 06:25:05;;;;;;;8.60;3.40;;;;;;;2.68;100.00;99143.83;136465;1286;22108;-75
2023/12/27 06:28:07;;;;;;;7.50;3.90;;;;;;;2.63;100.00;99142.39;136431;1286;22251;-76
2023/12/27 06:31:09;;;;;;;18.30;5.80;;;;;;;2.54;100.00;99150.21;136271;1275;22235;-76
2023/12/27 06:34:12;;;;;;;13.10;6.00;;;;;;;2.50;100.00;99152.74;135673;1285;25018;-76
2023/12/27 06:37:14;;;;;;;15.20;6.50;;;;;;;2.45;100.00;99155.95;136465;1285;22775;-75
2023/12/27 06:40:17;;;;;;;8.20;4.10;;;;;;;2.41;100.00;99166.92;136413;1285;22238;-76
2023/12/27 06:43:20;;;;;;;10.50;3.40;;;;;;;2.40;100.00;99171.84;136318;1285;22199;-76
2023/12/27 06:46:22;;;;;;;8.40;3.40;;;;;;;2.40;100.00;99179.60;136290;1285;22296;-75
2023/12/27 06:49:25;;;;;;;14.00;5.00;;;;;;;2.43;100.00;99189.17;136431;1285;22262;-76
2023/12/27 06:52:28;;;;;;;15.50;4.40;;;;;;;2.48;100.00;99204.52;136505;1285;23065;-76
2023/12/27 06:55:30;;;;;;;10.60;3.70;;;;;;;2.54;100.00;99206.89;136487;1285;22252;-75
2023/12/27 06:58:33;;;;;;;10.10;3.60;;;;;;;2.61;100.00;99214.63;136462;1285;22185;-76
2023/12/27 07:01:35;;;;;;;10.40;4.60;;;;;;;2.66;100.00;99216.63;136453;1285;22245;-76
2023/12/27 07:04:38;;;;;;;14.20;4.70;;;;;;;2.71;100.00;99219.11;136918;1278;22688;-77
2023/12/27 07:07:40;;;;;;;16.90;5.50;;;;;;;2.77;100.00;99220.59;136877;1278;22298;-76
2023/12/27 07:10:43;;;;;;;15.80;4.40;;;;;;;2.83;100.00;99228.77;136883;1278;22968;-76
2023/12/27 07:13:46;;;;;;;12.50;4.10;;;;;;;2.88;100.00;99234.38;136857;1278;22282;-75
2023/12/27 07:16:48;;;;;;;9.80;3.80;;;;;;;2.92;100.00;99234.22;136866;1278;22478;-74
2023/12/27 07:19:51;;;;;;;10.00;3.80;;;;;;;2.97;100.00;99241.14;136867;1278;22199;-74
2023/12/27 07:22:53;;;;;;;10.80;4.10;;;;;;;3.01;100.00;99243.08;136878;1278;22271;-74
2023/12/27 07:25:56;;;;;;;11.00;3.90;;;;;;;3.05;100.00;99243.26;136887;1278;22689;-74
2023/12/27 07:28:59;;;;;;;6.00;3.20;;;;;;;3.10;100.00;99245.91;136823;1278;22766;-76
2023/12/27 07:32:01;;;;;;;12.70;3.40;;;;;;;3.15;100.00;99244.08;136801;1278;22190;-76
2023/12/27 07:35:04;;;;;;;7.50;3.90;;;;;;;3.21;100.00;99258.28;136829;1278;22688;-74
2023/12/27 07:38:07;;;;;;;6.50;3.20;;;;;;;3.25;100.00;99261.58;136834;1278;22999;-76
2023/12/27 07:41:11;;;;;;;9.70;3.60;;;;;;;3.28;100.00;99269.13;136837;1278;22211;-74
2023/12/27 07:44:15;;;;;;;7.80;3.50;;;;;;;3.30;100.00;99283.80;136875;1278;22735;-76
2023/12/27 07:47:18;;;;;;;9.00;3.30;;;;;;;3.30;100.00;99284.52;136855;1278;22333;-75
2023/12/27 07:50:20;;;;;;;10.70;3.70;;;;;;;3.33;100.00;99289.63;136814;1278;22687;-76
2023/12/27 07:53:23;;;;;;;7.80;2.90;;;;;;;3.36;100.00;99296.14;136850;1278;22206;-76
2023/12/27 07:56:25;;;;;;;8.30;3.30;;;;;;;3.39;100.00;99305.25;136880;1278;22205;-76
2023/12/27 07:59:30;;;;;;;9.00;3.30;;;;;;;3.42;100.00;99305.02;136806;1271;22214;-76
2023/12/27 08:02:33;;;;;;;11.90;3.00;;;;;;;3.46;100.00;99316.42;136856;1278;22188;-75
2023/12/27 08:05:35;;;;;;;6.90;2.30;;;;;;;3.49;100.00;99330.20;136862;1278;22205;-76
2023/12/27 08:08:38;;;;;;;9.90;2.70;;;;;;;3.51;100.00;99334.43;136878;1278;22187;-75
2023/12/27 08:11:40;;;;;;;12.20;3.30;;;;;;;3.54;100.00;99338.16;136885;1278;22281;-75
2023/12/27 08:14:44;;;;;;;8.10;2.40;;;;;;;3.56;100.00;99355.31;136839;1278;22752;-75
2023/12/27 08:17:46;;;;;;;10.40;2.30;;;;;;;3.55;100.00;99355.05;136857;1278;22266;-75
2023/12/27 08:20:49;;;;;;;13.50;3.30;;;;;;;3.55;100.00;99364.20;136858;1278;22255;-75
2023/12/27 08:23:51;;;;;;;8.00;2.70;;;;;;;3.58;100.00;99367.24;136865;1278;22999;-76
2023/12/27 08:26:53;;;;;;;11.10;3.80;;;;;;;3.59;100.00;99377.82;136878;1278;22196;-74
2023/12/27 08:29:56;;;;;;;11.00;3.30;;;;;;;3.64;100.00;99380.77;136847;1278;22241;-75
2023/12/27 08:32:59;;;;;;;8.00;3.50;;;;;;;3.68;100.00;99388.40;136876;1278;22220;-74
2023/12/27 08:36:02;;;;;;;7.20;2.70;;;;;;;3.72;100.00;99394.58;136863;1278;22782;-75
2023/12/27 08:39:05;;;;;;;12.50;5.20;;;;;;;3.72;100.00;99388.61;136837;1278;22252;-74
2023/12/27 08:42:07;;;;;;;7.00;3.00;;;;;;;3.77;100.00;99391.41;136841;1278;22653;-74
2023/12/27 08:45:09;;;;;;;12.10;3.90;;;;;;;3.83;100.00;99387.90;136862;1275;22352;-74
2023/12/27 08:48:12;;;;;;;11.30;4.00;;;;;;;3.90;100.00;99390.78;136861;1278;22339;-74
2023/12/27 08:51:15;;;;;;;7.40;3.40;;;;;;;3.94;100.00;99399.92;136793;1279;22657;-74
2023/12/27 08:54:17;;;;;;;10.10;4.70;;;;;;;3.95;100.00;99404.65;136868;1278;22241;-75
2023/12/27 08:57:20;;;;;;;12.90;4.00;;;;;;;3.98;100.00;99402.72;136862;1278;22353;-75
2023/12/27 09:00:23;;;;;;;14.40;4.20;;;;;;;4.02;100.00;99404.80;136820;1278;22600;-75
2023/12/27 09:03:25;;;;;;;15.70;4.10;;;;;;;4.05;100.00;99414.78;136847;1279;22408;-77
2023/12/27 09:06:28;;;;;;;8.40;3.50;;;;;;;4.07;100.00;99418.48;136875;1279;22862;-75
2023/12/27 09:09:30;;;;;;;10.00;3.20;;;;;;;4.12;100.00;99419.39;136837;1279;22199;-75
2023/12/27 09:12:33;;;;;;;14.00;4.10;;;;;;;4.14;100.00;99434.14;136870;1279;22208;-75
2023/12/27 09:15:35;;;;;;;12.10;4.30;;;;;;;4.16;100.00;99434.92;136871;1279;22202;-77
2023/12/27 09:18:40;;;;;;;15.50;3.00;;;;;;;4.14;100.00;99439.13;136692;1278;22578;-75
2023/12/27 09:21:43;;;;;;;;;;;;;;;4.20;100.00;99432.17;136917;1275;22319;-76
2023/12/27 09:24:45;;;;;;;16.20;4.30;;;;;;;4.27;100.00;99432.63;136417;1279;22966;-75
2023/12/27 09:27:48;;;;;;;9.80;4.00;;;;;;;4.27;100.00;99438.67;136220;1279;22594;-76
2023/12/27 09:30:52;;;;;;;10.00;4.00;;;;;;;4.26;100.00;99442.09;136899;1279;22236;-76
2023/12/27 09:33:54;;;;;;;15.10;5.40;;;;;;;4.30;100.00;99437.27;136963;1279;22218;-77
2023/12/27 09:36:57;;;;;;;14.90;5.70;;;;;;;4.33;100.00;99434.17;136636;1278;24985;-75
2023/12/27 09:39:59;;;;;;;15.00;5.00;;;;;;;4.40;100.00;99430.34;136844;1279;22259;-74
2023/12/27 09:43:01;;;;;;;13.50;4.30;;;;;;;4.48;100.00;99429.33;137168;1279;22236;-77
2023/12/27 09:46:04;;;;;;;9.30;3.20;;;;;;;4.44;100.00;99436.06;137135;1279;22784;-75
2023/12/27 09:49:06;;;;;;;13.20;4.90;;;;;;;4.36;100.00;99434.83;136964;1279;22843;-76
2023/12/27 09:52:09;;;;;;;10.70;3.80;;;;;;;4.38;100.00;99434.05;136874;1279;22330;-75
2023/12/27 09:55:11;;;;;;;11.40;4.80;;;;;;;4.43;100.00;99429.64;136848;1279;22274;-76
2023/12/27 09:58:15;;;;;;;9.30;3.10;;;;;;;4.45;100.00;99434.40;136855;1279;22247;-76
2023/12/27 10:01:17;;;;;;;15.90;5.70;;;;;;;4.49;100.00;99429.41;136869;1279;22331;-76
2023/12/27 10:04:22;;;;;;;14.60;5.60;;;;;;;4.63;100.00;99429.83;136907;1279;23010;-77
2023/12/27 10:07:25;;;;;;;;;;;;;;;4.78;100.00;99435.84;136912;1279;22906;-76
2023/12/27 10:10:28;;;;;;;25.10;5.20;;;;;;;4.78;100.00;99440.70;136809;1279;22225;-75
2023/12/27 10:13:32;;;;;;;10.20;4.10;;;;;;;4.73;100.00;99433.90;136901;1279;23075;-77
2023/12/27 10:16:35;;;;;;;10.90;4.00;;;;;;;4.81;100.00;99441.48;136887;1279;22250;-75
2023/12/27 10:19:38;;;;;;;20.30;4.40;;;;;;;4.83;100.00;99441.42;136886;1279;22768;-75
2023/12/27 10:22:41;;;;;;;14.20;4.60;;;;;;;4.91;100.00;99439.17;136846;1278;23022;-76
2023/12/27 10:25:44;;;;;;;17.30;5.50;;;;;;;4.96;100.00;99437.32;136881;1279;22985;-75
2023/12/27 10:28:46;;;;;;;17.50;4.80;;;;;;;5.03;100.00;99439.88;136881;1278;22634;-75
2023/12/27 10:31:49;;;;;;;11.70;5.50;;;;;;;5.01;100.00;99441.17;136841;1278;22235;-76
2023/12/27 10:34:51;;;;;;;12.50;5.60;;;;;;;4.99;100.00;99437.27;136872;1279;23151;-76
2023/12/27 10:37:54;;;;;;;9.80;4.40;;;;;;;4.93;100.00;99439.95;136883;1278;22230;-76
2023/12/27 10:40:56;;;;;;;11.80;4.60;;;;;;;4.95;100.00;99441.63;136859;1279;22682;-76
2023/12/27 10:44:00;;;;;;;14.10;5.00;;;;;;;5.02;100.00;99444.66;136855;1278;22220;-75
2023/12/27 10:47:03;;;;;;;11.80;4.80;;;;;;;5.05;100.00;99441.15;136869;1279;22843;-75
2023/12/27 10:50:05;;;;;;;19.70;5.70;;;;;;;5.05;100.00;99438.23;136903;1278;22253;-76
2023/12/27 10:53:08;;;;;;;20.80;5.60;;;;;;;5.01;100.00;99439.09;136944;1279;22667;-76
2023/12/27 10:56:11;;;;;;;14.70;5.50;;;;;;;4.96;100.00;99444.94;136761;1278;22698;-75
2023/12/27 10:59:13;;;;;;;10.80;4.50;;;;;;;4.94;100.00;99443.14;136906;1278;22191;-75
2023/12/27 11:02:17;;;;;;;16.50;6.60;;;;;;;4.95;100.00;99446.27;136851;1278;22226;-76
2023/12/27 11:05:19;;;;;;;14.40;5.80;;;;;;;4.96;100.00;99449.75;136869;1279;23200;-75
2023/12/27 11:08:22;;;;;;;18.40;6.20;;;;;;;4.97;100.00;99444.45;136886;1278;22340;-76
2023/12/27 11:11:24;;;;;;;18.70;6.60;;;;;;;5.01;100.00;99443.27;136880;1278;22247;-75
2023/12/27 11:14:27;;;;;;;18.60;7.20;;;;;;;5.22;100.00;99437.96;136912;1278;22850;-76
2023/12/27 11:17:30;;;;;;;8.50;4.00;;;;;;;5.28;100.00;99430.80;136893;1279;22172;-76
2023/12/27 11:54:02;;;;;;;14.60;4.30;;;;;;;4.99;100.00;99453.86;132671;1312;545529;-79
2023/12/27 11:57:03;;;;;;;18.50;6.00;;;;;;;5.03;100.00;99456.63;136377;1287;22495;-79
2023/12/27 12:00:05;;;;;;;17.00;5.40;;;;;;;5.09;100.00;99453.27;136356;1287;22667;-76
2023/12/27 12:03:07;;;;;;;14.00;5.50;;;;;;;5.16;100.00;99450.95;136320;1287;22564;-76
2023/12/27 12:06:08;;;;;;;17.30;6.00;;;;;;;5.14;100.00;99446.56;136334;1285;66329;-76
2023/12/27 12:09:11;;;;;;;16.40;5.80;;;;;;;5.05;100.00;99443.27;135738;1285;22549;-74
2023/12/27 12:12:12;;;;;;;15.20;5.60;;;;;;;5.01;100.00;99444.46;136495;1285;22302;-77
2023/12/27 12:15:13;;;;;;;25.20;7.70;;;;;;;5.01;100.00;99444.60;135598;1285;22900;-76
2023/12/27 12:18:14;;;;;;;16.50;6.40;;;;;;;5.02;100.00;99441.89;135940;1285;23089;-76
2023/12/27 12:21:15;;;;;;;21.50;8.00;;;;;;;5.07;100.00;99440.58;136513;1285;22896;-76
2023/12/27 12:24:18;;;;;;;17.50;5.90;;;;;;;5.14;100.00;99439.84;136511;1285;22235;-76
2023/12/27 12:27:19;;;;;;;13.60;5.00;;;;;;;5.08;100.00;99436.80;136393;1280;22679;-76
2023/12/27 12:30:21;;;;;;;17.90;6.40;;;;;;;5.02;100.00;99433.95;136492;1280;22582;-76
2023/12/27 12:33:22;;;;;;;25.10;8.00;;;;;;;5.00;100.00;99434.91;136427;1280;22207;-76
2023/12/27 12:36:23;;;;;;;20.00;6.70;;;;;;;4.99;100.00;99429.01;135993;1280;22276;-76
2023/12/27 12:39:24;;;;;;;26.60;10.00;;;;;;;4.96;100.00;99428.37;136254;1280;22547;-76
2023/12/27 12:42:25;;;;;;;18.30;8.30;;;;;;;4.96;100.00;99427.52;136604;1280;22421;-78
2023/12/27 12:45:26;;;;;;;21.70;7.30;;;;;;;4.97;100.00;99427.88;136754;1274;22228;-77
2023/12/27 12:48:27;;;;;;;24.30;10.60;;;;;;;5.00;100.00;99423.17;136736;1280;22277;-77
2023/12/27 12:51:28;;;;;;;36.20;10.90;;;;;;;5.05;100.00;99423.58;136646;1280;22720;-76
2023/12/27 12:54:29;;;;;;;47.00;17.50;;;;;;;5.10;100.00;99419.67;136704;1280;22375;-77
2023/12/27 12:57:30;;;;;;;16.90;7.10;;;;;;;5.13;100.00;99417.70;136700;1280;22183;-77
2023/12/27 13:00:31;;;;;;;15.20;6.50;;;;;;;5.09;100.00;99423.21;136645;1280;22329;-76
2023/12/27 13:03:35;;;;;;;19.20;8.30;;;;;;;5.08;100.00;99424.05;136674;1281;22203;-75
2023/12/27 13:21:36;;;;;;;24.00;9.70;;;;;;;5.31;100.00;99415.39;132946;1299;557620;-79
2023/12/27 13:24:39;;;;;;;22.20;9.20;;;;;;;5.22;100.00;99413.77;135740;1287;78713;-79
2023/12/27 13:27:42;;;;;;;17.20;7.30;;;;;;;5.15;100.00;99415.73;136020;1287;22583;-78
2023/12/27 13:30:44;;;;;;;22.20;8.60;;;;;;;5.14;100.00;99409.65;136748;1280;22788;-78
2023/12/27 13:33:47;;;;;;;23.00;9.40;;;;;;;5.09;100.00;99410.82;136900;1280;22866;-79
2023/12/27 13:36:50;;;;;;;20.80;7.90;;;;;;;5.03;100.00;99415.70;136899;1280;22178;-79
2023/12/27 13:39:53;;;;;;;20.70;8.50;;;;;;;4.94;100.00;99412.06;136887;1280;22238;-78
2023/12/27 13:42:56;;;;;;;20.60;7.10;;;;;;;4.88;100.00;99417.84;136930;1280;22351;-77
2023/12/27 13:45:58;;;;;;;17.10;8.00;;;;;;;4.84;100.00;99417.32;136897;1280;22210;-81
2023/12/27 13:49:00;;;;;;;21.40;8.40;;;;;;;4.81;100.00;99420.13;136897;1280;22231;-79
2023/12/27 13:52:03;;;;;;;24.90;8.90;;;;;;;4.75;100.00;99421.07;136686;1279;22204;-79
2023/12/27 13:55:06;;;;;;;15.00;7.00;;;;;;;4.67;100.00;99430.70;136787;1279;22250;-79
2023/12/27 13:58:09;;;;;;;23.90;7.00;;;;;;;4.58;100.00;99433.74;137079;1279;22603;-77
2023/12/27 14:01:11;;;;;;;17.50;7.00;;;;;;;4.49;100.00;99433.85;136704;1279;22229;-78
2023/12/27 14:04:13;;;;;;;18.50;8.00;;;;;;;4.43;100.00;99430.64;136636;1279;22292;-79
2023/12/27 14:07:16;;;;;;;15.00;6.40;;;;;;;4.35;100.00;99428.94;137126;1279;22144;-77
2023/12/27 14:10:19;;;;;;;22.30;8.40;;;;;;;4.27;100.00;99429.05;137039;1279;22250;-79
2023/12/27 14:13:21;;;;;;;18.40;8.10;;;;;;;4.20;100.00;99434.75;137147;1279;22213;-78
2023/12/27 14:16:25;;;;;;;20.40;9.60;;;;;;;4.12;100.00;99436.26;137036;1279;22251;-79
2023/12/27 14:19:27;;;;;;;23.60;9.60;;;;;;;4.04;100.00;99430.88;136952;1279;22175;-78
2023/12/27 14:22:30;;;;;;;20.20;9.70;;;;;;;3.97;100.00;99424.36;136960;1279;22192;-79
2023/12/27 14:25:35;;;;;;;29.70;10.90;;;;;;;3.90;100.00;99421.63;136974;1279;22186;-79
2023/12/27 14:28:37;;;;;;;28.10;11.40;;;;;;;3.82;100.00;99426.25;137338;1275;22132;-78
2023/12/27 14:31:40;;;;;;;29.20;9.50;;;;;;;3.73;100.00;99424.98;137347;1275;22706;-79
2023/12/27 14:34:42;;;;;;;19.90;8.70;;;;;;;3.68;100.00;99424.20;137364;1275;22927;-77
2023/12/27 14:37:45;;;;;;;21.00;6.70;;;;;;;3.62;100.00;99420.95;137396;1275;22232;-79
2023/12/27 14:40:47;;;;;;;14.40;6.60;;;;;;;3.57;100.00;99421.60;137382;1275;22448;-80
2023/12/27 14:43:49;;;;;;;15.00;6.50;;;;;;;3.51;100.00;99423.35;136567;1275;22243;-78
2023/12/27 14:46:53;;;;;;;17.00;7.80;;;;;;;3.45;100.00;99424.08;137059;1275;22276;-80
2023/12/27 14:49:56;;;;;;;19.80;8.00;;;;;;;3.38;100.00;99426.11;137421;1275;22237;-79
2023/12/27 14:52:58;;;;;;;21.20;7.10;;;;;;;3.30;100.00;99435.02;136967;1275;22212;-80
2023/12/27 14:56:01;;;;;;;22.10;7.50;;;;;;;3.19;100.00;99443.61;136897;1275;22049;-80
2023/12/27 14:59:04;;;;;;;18.90;6.30;;;;;;;3.09;100.00;99451.36;137036;1260;22548;-80
2023/12/27 15:02:07;;;;;;;16.50;5.60;;;;;;;3.01;100.00;99451.10;137296;1275;22227;-80
2023/12/27 15:05:09;;;;;;;22.30;5.90;;;;;;;2.94;100.00;99454.52;136809;1275;22697;-80
2023/12/27 15:08:12;;;;;;;22.70;7.40;;;;;;;2.86;100.00;99454.83;137033;1275;22611;-80
2023/12/27 15:11:14;;;;;;;21.10;8.70;;;;;;;2.75;100.00;99453.88;137402;1275;22255;-79
2023/12/27 15:14:17;;;;;;;25.50;8.20;;;;;;;2.66;100.00;99453.03;136830;1275;22293;-80
2023/12/27 15:17:19;;;;;;;22.70;7.00;;;;;;;2.59;100.00;99452.52;136877;1275;22237;-80
2023/12/27 15:20:22;;;;;;;19.60;6.40;;;;;;;2.52;100.00;99447.86;137468;1275;22674;-79
2023/12/27 15:23:24;;;;;;;17.50;6.20;;;;;;;2.44;100.00;99448.41;136915;1272;22411;-80
2023/12/27 15:26:27;;;;;;;17.90;5.40;;;;;;;2.39;100.00;99446.64;136889;1275;22215;-80
2023/12/27 15:29:30;;;;;;;18.90;6.10;;;;;;;2.35;100.00;99447.43;137410;1275;22754;-79
2023/12/27 15:32:33;;;;;;;16.90;7.40;;;;;;;2.28;100.00;99447.07;137108;1275;22209;-80
2023/12/27 15:35:36;;;;;;;19.00;6.40;;;;;;;2.25;100.00;99444.84;137425;1275;22282;-81
2023/12/27 15:38:38;;;;;;;17.80;7.00;;;;;;;2.20;100.00;99448.20;137090;1275;22544;-79
2023/12/27 15:41:41;;;;;;;17.10;6.70;;;;;;;2.14;100.00;99446.98;137449;1275;22833;-81
2023/12/27 15:44:43;;;;;;;16.00;7.20;;;;;;;2.06;100.00;99449.11;137408;1275;22161;-79
2023/12/27 15:47:48;;;;;;;74.90;9.50;;;;;;;1.99;100.00;99448.19;137000;1275;22330;-79
2023/12/27 15:50:50;;;;;;;23.30;8.00;;;;;;;1.91;100.00;99449.17;137384;1275;22145;-79
2023/12/27 15:53:54;;;;;;;26.40;10.20;;;;;;;1.83;100.00;99451.13;137443;1275;22403;-80
2023/12/27 15:56:56;;;;;;;25.10;9.40;;;;;;;1.75;100.00;99455.95;136763;1275;22267;-79
2023/12/27 15:59:59;;;;;;;22.30;9.90;;;;;;;1.65;100.00;99454.19;137409;1275;22129;-78
2023/12/27 16:03:01;;;;;;;88.90;13.40;;;;;;;1.56;100.00;99460.16;137336;1275;22171;-77
2023/12/27 16:06:04;;;;;;;28.80;11.40;;;;;;;1.46;100.00;99463.77;137419;1275;22325;-79
2023/12/27 16:09:07;;;;;;;29.20;11.20;;;;;;;1.37;100.00;99468.38;136953;1275;22545;-79
2023/12/27 16:12:09;;;;;;;30.10;12.10;;;;;;;1.27;100.00;99464.20;137378;1275;22248;-78
2023/12/27 16:15:12;;;;;;;25.80;12.80;;;;;;;1.20;100.00;99470.62;136798;1275;22536;-80
2023/12/27 16:18:14;;;;;;;28.90;13.50;;;;;;;1.10;100.00;99476.72;136950;1275;22440;-79
2023/12/27 16:21:16;;;;;;;31.20;14.00;;;;;;;1.01;100.00;99475.83;137294;1275;22226;-79
2023/12/27 16:24:19;;;;;;;32.30;13.70;;;;;;;0.92;100.00;99475.83;137593;1275;22227;-80
2023/12/27 16:27:21;;;;;;;34.20;15.10;;;;;;;0.85;100.00;99473.48;137328;1275;22306;-79
2023/12/27 16:30:24;;;;;;;31.60;14.40;;;;;;;0.81;100.00;99467.94;137517;1275;22581;-78
2023/12/27 16:33:26;;;;;;;33.20;16.20;;;;;;;0.79;100.00;99466.62;137380;1275;22351;-79
2023/12/27 16:36:29;;;;;;;38.00;17.30;;;;;;;0.78;100.00;99470.14;137450;1275;22234;-79
2023/12/27 16:39:32;;;;;;;41.90;17.40;;;;;;;0.79;100.00;99474.52;137370;1272;22200;-78
2023/12/27 16:42:34;;;;;;;42.80;15.30;;;;;;;0.81;100.00;99473.75;137387;1275;22190;-79
2023/12/27 16:45:37;;;;;;;40.60;14.20;;;;;;;0.84;100.00;99478.71;137414;1275;22175;-79
2023/12/27 16:48:39;;;;;;;34.40;13.00;;;;;;;0.89;100.00;99481.27;137301;1275;22161;-77
2023/12/27 16:51:42;;;;;;;28.00;11.20;;;;;;;0.92;100.00;99482.48;137393;1275;22751;-79
2023/12/27 16:54:44;;;;;;;32.70;12.40;;;;;;;0.96;100.00;99484.13;137343;1275;22266;-78
2023/12/27 16:57:47;;;;;;;29.20;12.40;;;;;;;1.01;100.00;99482.20;137319;1275;22342;-77
2023/12/27 17:00:49;;;;;;;39.20;16.20;;;;;;;1.06;100.00;99483.02;137304;1275;22280;-78
2023/12/27 17:03:52;;;;;;;35.70;14.40;;;;;;;1.09;100.00;99481.66;137349;1275;22203;-78
2023/12/27 17:06:54;;;;;;;41.20;18.00;;;;;;;1.12;100.00;99482.64;137333;1275;22238;-78
2023/12/27 17:09:57;;;;;;;47.80;19.20;;;;;;;1.11;100.00;99482.61;137300;1275;22342;-78
2023/12/27 17:12:59;;;;;;;54.70;23.70;;;;;;;1.09;100.00;99489.16;137256;1275;23155;-78
2023/12/27 17:16:02;;;;;;;59.20;23.40;;;;;;;1.09;100.00;99492.79;137314;1275;22270;-78
2023/12/27 17:19:04;;;;;;;58.30;24.30;;;;;;;1.10;100.00;99493.70;137073;1275;22241;-77
2023/12/27 17:22:08;;;;;;;98.80;25.80;;;;;;;1.12;100.00;99496.73;137413;1275;22175;-77
2023/12/27 17:25:10;;;;;;;49.80;20.90;;;;;;;1.16;100.00;99501.75;137281;1275;22617;-78
2023/12/27 17:28:13;;;;;;;53.10;22.20;;;;;;;1.15;100.00;99504.66;137206;1275;22312;-78
2023/12/27 17:31:15;;;;;;;51.60;20.00;;;;;;;1.11;100.00;99503.69;137308;1275;22234;-78
2023/12/27 17:34:17;;;;;;;44.60;18.20;;;;;;;1.06;100.00;99505.14;137349;1275;22716;-78
2023/12/27 17:37:20;;;;;;;41.00;17.40;;;;;;;1.04;100.00;99509.62;137381;1275;22254;-78
2023/12/27 17:40:22;;;;;;;47.30;17.40;;;;;;;1.06;100.00;99512.84;137344;1275;22340;-78
2023/12/27 17:43:25;;;;;;;37.40;15.30;;;;;;;1.10;100.00;99514.96;137372;1275;22408;-78
2023/12/27 17:46:27;;;;;;;45.30;16.10;;;;;;;1.09;100.00;99517.83;137291;1275;22618;-79
2023/12/27 17:49:30;;;;;;;32.90;14.90;;;;;;;1.02;100.00;99518.58;137338;1275;22178;-79
2023/12/27 17:52:32;;;;;;;32.40;14.60;;;;;;;0.91;100.00;99520.70;137298;1275;22221;-78
2023/12/27 17:55:35;;;;;;;29.60;14.40;;;;;;;0.80;100.00;99522.70;137324;1275;22228;-79
2023/12/27 17:58:37;;;;;;;33.60;14.60;;;;;;;0.71;100.00;99524.54;137365;1275;22706;-79
2023/12/27 18:01:39;;;;;;;30.50;14.20;;;;;;;0.59;100.00;99517.50;137444;1275;22703;-78
2023/12/27 18:04:43;;;;;;;30.70;13.80;;;;;;;0.50;100.00;99515.55;137394;1275;22941;-78
2023/12/27 18:07:45;;;;;;;45.50;15.10;;;;;;;0.81;100.00;99502.17;137339;1275;22373;-76
2023/12/27 18:10:48;;;;;;;45.10;12.20;;;;;;;5.35;100.00;99478.91;137293;1275;22255;-77
2023/12/27 18:13:50;;;;;;;33.30;13.80;;;;;;;8.63;100.00;99464.36;137313;1275;22672;-77
2023/12/27 18:16:52;;;;;;;35.60;14.60;;;;;;;10.71;100.00;99456.31;137242;1275;22223;-77
2023/12/27 18:19:55;;;;;;;30.80;13.40;;;;;;;12.61;100.00;99455.36;137312;1275;22719;-77
2023/12/27 18:22:57;;;;;;;34.00;13.40;;;;;;;13.85;100.00;99452.79;137318;1275;22234;-79
2023/12/27 18:26:00;;;;;;;30.80;14.10;;;;;;;11.83;100.00;99462.92;137411;1275;23041;-79
2023/12/27 18:29:02;;;;;;;25.10;12.90;;;;;;;8.96;93.71;99466.48;137390;1275;22226;-79
2023/12/27 18:32:05;;;;;;;27.10;13.40;;;;;;;6.86;69.25;99466.06;137441;1275;22217;-81
2023/12/27 18:35:07;;;;;;;28.30;13.20;;;;;;;5.33;70.59;99469.08;137432;1275;22174;-82
2023/12/27 18:38:10;;;;;;;23.60;11.90;;;;;;;4.19;72.60;99466.72;137401;1275;22262;-80
2023/12/27 18:41:13;;;;;;;26.70;13.00;;;;;;;3.30;74.39;99465.98;137367;1275;23061;-81
2023/12/27 18:44:15;;;;;;;31.20;13.30;;;;;;;2.57;76.33;99471.13;137382;1275;22287;-81
2023/12/27 18:47:18;;;;;;;28.60;13.60;;;;;;;2.05;78.76;99474.98;137400;1275;22614;-80
2023/12/27 18:50:20;;;;;;;28.80;13.30;;;;;;;1.67;80.60;99476.60;137411;1274;22648;-80
2023/12/27 18:53:23;;;;;;;28.30;13.00;;;;;;;1.42;82.27;99474.66;137292;1269;22463;-80
2023/12/27 18:56:33;;;;;;;30.60;13.80;;;;;;;1.25;83.71;99467.48;137438;1275;22233;-79
2023/12/27 18:59:36;;;;;;;29.90;13.50;;;;;;;1.10;84.58;99466.41;137375;1275;22218;-80
2023/12/27 19:02:38;;;;;;;34.80;14.60;;;;;;;0.95;85.41;99461.98;137378;1272;22621;-81
2023/12/27 19:05:42;;;;;;;38.20;15.90;;;;;;;0.83;86.19;99456.25;137342;1275;22309;-80
2023/12/27 19:08:44;;;;;;;31.80;14.90;;;;;;;0.73;87.42;99447.39;137504;1275;22747;-79
2023/12/27 19:11:46;;;;;;;33.70;15.00;;;;;;;0.67;88.44;99439.50;137431;1275;22544;-79
2023/12/27 19:14:49;;;;;;;38.00;15.10;;;;;;;0.63;89.12;99432.77;137460;1275;22285;-79
2023/12/27 19:17:52;;;;;;;37.90;16.50;;;;;;;0.59;89.82;99434.91;137493;1275;22515;-79
2023/12/27 19:20:54;;;;;;;37.80;16.40;;;;;;;0.55;90.50;99433.82;137494;1260;22744;-79
2023/12/27 19:23:57;;;;;;;37.50;16.00;;;;;;;0.50;90.81;99432.84;137439;1275;22275;-79
2023/12/27 19:26:59;;;;;;;42.60;17.90;;;;;;;0.49;91.73;99428.67;137400;1272;22753;-79
2023/12/27 19:30:04;;;;;;;38.00;17.50;;;;;;;0.51;92.49;99425.03;137403;1275;22309;-79
2023/12/27 19:33:07;;;;;;;37.60;16.40;;;;;;;0.51;92.62;99422.30;137398;1275;22163;-79
2023/12/27 19:36:09;;;;;;;38.20;15.70;;;;;;;0.47;92.63;99424.91;137371;1275;22154;-79
2023/12/27 19:39:12;;;;;;;30.30;12.30;;;;;;;0.42;92.69;99432.88;137414;1275;22199;-79
2023/12/27 19:42:14;;;;;;;22.40;11.20;;;;;;;0.34;93.01;99430.48;137269;1275;22409;-80
2023/12/27 19:45:17;;;;;;;20.00;10.60;;;;;;;0.28;93.89;99425.14;137323;1275;22314;-80
2023/12/27 19:48:20;;;;;;;25.50;12.50;;;;;;;0.25;94.72;99429.08;137296;1275;22758;-79
2023/12/27 19:51:22;;;;;;;26.30;11.50;;;;;;;0.19;95.14;99421.20;137372;1275;22773;-81
2023/12/27 19:54:25;;;;;;;27.50;12.10;;;;;;;0.15;95.81;99412.55;137390;1275;22159;-81
2023/12/27 19:57:31;;;;;;;22.20;10.60;;;;;;;0.11;95.89;99413.84;137346;1275;22208;-79
2023/12/27 20:00:33;;;;;;;22.40;11.20;;;;;;;0.06;96.06;99415.90;137312;1275;22257;-79
2023/12/27 20:03:37;;;;;;;20.90;10.80;;;;;;;-0.01;95.78;99415.67;137348;1275;22247;-79
2023/12/27 20:06:40;;;;;;;23.10;10.70;;;;;;;-0.08;95.80;99418.95;137275;1275;22515;-78
2023/12/27 20:09:44;;;;;;;35.90;12.00;;;;;;;-0.14;95.85;99421.65;137311;1275;22289;-80
2023/12/27 20:12:48;;;;;;;27.10;10.80;;;;;;;-0.18;96.16;99415.39;137391;1275;22224;-80
2023/12/27 20:15:51;;;;;;;19.40;9.40;;;;;;;-0.25;95.27;99411.75;137415;1275;22704;-78
2023/12/27 20:18:53;;;;;;;20.00;9.90;;;;;;;-0.39;94.84;99413.20;137409;1275;22430;-80
2023/12/27 20:21:56;;;;;;;18.90;9.00;;;;;;;-0.53;95.71;99422.08;137343;1275;22157;-80
2023/12/27 20:25:00;;;;;;;17.50;9.30;;;;;;;-0.62;95.80;99420.27;137260;1275;22267;-79